sensor_id;sensor_type;location;lat;lon;timestamp;pressure;altitude;pressure_sealevel;temperature;humidity
46642;BME280;32370;41.864;-88.124;2022-12-29T00:01:17;98111.42;;;3.86;79.78
46642;BME280;32370;41.864;-88.124;2022-12-29T00:03:46;98117.62;;;3.97;79.64
46642;BME280;32370;41.864;-88.124;2022-12-29T00:06:14;98125.04;;;3.69;79.96
46642;BME280;32370;41.864;-88.124;2022-12-29T00:08:42;98132.96;;;3.98;79.93
46642;BME280;32370;41.864;-88.124;2022-12-29T00:11:12;98138.57;;;3.66;80.35
46642;BME280;32370;41.864;-88.124;2022-12-29T00:13:41;98133.03;;;3.97;80.40
46642;BME280;32370;41.864;-88.124;2022-12-29T00:16:09;98137.14;;;3.79;80.20
46642;BME280;32370;41.864;-88.124;2022-12-29T00:18:37;98148.44;;;3.83;80.19
46642;BME280;32370;41.864;-88.124;2022-12-29T00:21:05;98142.35;;;3.99;80.65
46642;BME280;32370;41.864;-88.124;2022-12-29T00:23:35;98146.76;;;4.10;80.33
46642;BME280;32370;41.864;-88.124;2022-12-29T00:26:04;98146.76;;;4.03;80.04
46642;BME280;32370;41.864;-88.124;2022-12-29T00:28:35;98154.51;;;4.01;80.39
46642;BME280;32370;41.864;-88.124;2022-12-29T00:31:09;98144.54;;;4.09;80.33
46642;BME280;32370;41.864;-88.124;2022-12-29T00:33:39;98136.04;;;3.91;80.88
46642;BME280;32370;41.864;-88.124;2022-12-29T00:36:10;98135.49;;;4.06;80.56
46642;BME280;32370;41.864;-88.124;2022-12-29T00:38:43;98133.65;;;4.06;80.56
46642;BME280;32370;41.864;-88.124;2022-12-29T00:41:13;98137.21;;;4.12;80.77
46642;BME280;32370;41.864;-88.124;2022-12-29T00:43:41;98137.95;;;4.16;81.20
46642;BME280;32370;41.864;-88.124;2022-12-29T00:46:09;98141.54;;;4.06;81.18
46642;BME280;32370;41.864;-88.124;2022-12-29T00:48:37;98133.99;;;4.00;81.37
46642;BME280;32370;41.864;-88.124;2022-12-29T00:51:06;98138.45;;;4.38;81.02
46642;BME280;32370;41.864;-88.124;2022-12-29T00:53:34;98144.91;;;3.99;81.80
46642;BME280;32370;41.864;-88.124;2022-12-29T00:56:02;98150.67;;;4.06;81.78
46642;BME280;32370;41.864;-88.124;2022-12-29T00:58:30;98143.36;;;4.07;81.98
46642;BME280;32370;41.864;-88.124;2022-12-29T01:01:02;98137.82;;;4.06;81.99
46642;BME280;32370;41.864;-88.124;2022-12-29T01:03:31;98134.98;;;3.98;82.53
46642;BME280;32370;41.864;-88.124;2022-12-29T01:06:01;98135.18;;;4.22;82.75
46642;BME280;32370;41.864;-88.124;2022-12-29T01:08:29;98137.15;;;4.20;82.72
46642;BME280;32370;41.864;-88.124;2022-12-29T01:10:59;98134.37;;;4.31;82.68
46642;BME280;32370;41.864;-88.124;2022-12-29T01:13:27;98140.33;;;4.71;82.18
46642;BME280;32370;41.864;-88.124;2022-12-29T01:15:57;98138.10;;;4.39;83.28
46642;BME280;32370;41.864;-88.124;2022-12-29T01:18:26;98137.73;;;3.84;83.63
46642;BME280;32370;41.864;-88.124;2022-12-29T01:20:59;98135.84;;;4.09;83.14
46642;BME280;32370;41.864;-88.124;2022-12-29T01:23:28;98151.44;;;4.20;82.75
46642;BME280;32370;41.864;-88.124;2022-12-29T01:26:08;98142.76;;;4.58;82.52
46642;BME280;32370;41.864;-88.124;2022-12-29T01:28:36;98147.40;;;4.86;82.35
46642;BME280;32370;41.864;-88.124;2022-12-29T01:31:04;98153.17;;;4.64;83.04
46642;BME280;32370;41.864;-88.124;2022-12-29T01:33:32;98141.46;;;4.27;82.59
46642;BME280;32370;41.864;-88.124;2022-12-29T01:36:01;98148.79;;;4.37;83.16
46642;BME280;32370;41.864;-88.124;2022-12-29T01:38:30;98141.14;;;4.31;82.89
46642;BME280;32370;41.864;-88.124;2022-12-29T01:40:58;98143.27;;;4.25;82.89
46642;BME280;32370;41.864;-88.124;2022-12-29T01:43:39;98154.69;;;4.09;83.23
46642;BME280;32370;41.864;-88.124;2022-12-29T01:46:17;98158.49;;;4.27;83.03
46642;BME280;32370;41.864;-88.124;2022-12-29T01:48:46;98160.10;;;4.86;82.79
46642;BME280;32370;41.864;-88.124;2022-12-29T01:51:16;98162.26;;;4.18;83.06
46642;BME280;32370;41.864;-88.124;2022-12-29T01:53:45;98172.48;;;4.37;82.60
46642;BME280;32370;41.864;-88.124;2022-12-29T01:56:17;98170.99;;;4.16;83.22
46642;BME280;32370;41.864;-88.124;2022-12-29T01:58:50;98169.76;;;4.37;83.42
46642;BME280;32370;41.864;-88.124;2022-12-29T02:01:23;98170.46;;;4.25;83.47
46642;BME280;32370;41.864;-88.124;2022-12-29T02:03:51;98160.62;;;4.79;83.31
46642;BME280;32370;41.864;-88.124;2022-12-29T02:06:22;98182.97;;;4.23;83.66
46642;BME280;32370;41.864;-88.124;2022-12-29T02:08:53;98183.82;;;4.55;83.23
46642;BME280;32370;41.864;-88.124;2022-12-29T02:11:23;98179.95;;;4.32;83.25
46642;BME280;32370;41.864;-88.124;2022-12-29T02:13:52;98180.87;;;4.63;83.07
46642;BME280;32370;41.864;-88.124;2022-12-29T02:16:31;98188.70;;;4.51;82.62
46642;BME280;32370;41.864;-88.124;2022-12-29T02:19:18;98196.00;;;4.59;83.24
46642;BME280;32370;41.864;-88.124;2022-12-29T02:22:02;98190.33;;;4.36;83.28
46642;BME280;32370;41.864;-88.124;2022-12-29T02:24:52;98180.72;;;4.31;83.61
46642;BME280;32370;41.864;-88.124;2022-12-29T02:27:38;98188.36;;;4.38;83.55
46642;BME280;32370;41.864;-88.124;2022-12-29T02:30:16;98186.82;;;4.99;83.40
46642;BME280;32370;41.864;-88.124;2022-12-29T02:32:54;98186.90;;;4.29;84.12
46642;BME280;32370;41.864;-88.124;2022-12-29T02:35:32;98190.92;;;4.68;83.60
46642;BME280;32370;41.864;-88.124;2022-12-29T02:38:12;98203.73;;;4.42;84.15
46642;BME280;32370;41.864;-88.124;2022-12-29T02:40:48;98198.25;;;5.06;83.61
46642;BME280;32370;41.864;-88.124;2022-12-29T02:43:24;98202.68;;;4.53;83.80
46642;BME280;32370;41.864;-88.124;2022-12-29T02:45:56;98200.45;;;4.68;83.43
46642;BME280;32370;41.864;-88.124;2022-12-29T02:48:28;98205.55;;;4.67;83.38
46642;BME280;32370;41.864;-88.124;2022-12-29T02:51:01;98212.56;;;4.73;83.12
46642;BME280;32370;41.864;-88.124;2022-12-29T02:53:32;98210.23;;;4.33;83.78
46642;BME280;32370;41.864;-88.124;2022-12-29T02:56:01;98220.99;;;4.47;83.54
46642;BME280;32370;41.864;-88.124;2022-12-29T02:58:30;98220.71;;;4.66;83.19
46642;BME280;32370;41.864;-88.124;2022-12-29T03:01:15;98218.61;;;4.83;83.43
46642;BME280;32370;41.864;-88.124;2022-12-29T03:03:53;98218.73;;;4.64;83.21
46642;BME280;32370;41.864;-88.124;2022-12-29T03:06:35;98218.68;;;4.58;84.22
46642;BME280;32370;41.864;-88.124;2022-12-29T03:09:14;98227.82;;;4.90;83.71
46642;BME280;32370;41.864;-88.124;2022-12-29T03:11:50;98229.03;;;4.93;83.54
46642;BME280;32370;41.864;-88.124;2022-12-29T03:14:27;98224.63;;;4.63;83.95
46642;BME280;32370;41.864;-88.124;2022-12-29T03:16:59;98228.39;;;4.62;84.00
46642;BME280;32370;41.864;-88.124;2022-12-29T03:19:31;98231.76;;;4.78;83.94
46642;BME280;32370;41.864;-88.124;2022-12-29T03:22:06;98219.25;;;4.79;84.11
46642;BME280;32370;41.864;-88.124;2022-12-29T03:24:40;98229.20;;;4.43;84.41
46642;BME280;32370;41.864;-88.124;2022-12-29T03:27:19;98223.66;;;4.68;84.69
46642;BME280;32370;41.864;-88.124;2022-12-29T03:29:57;98230.61;;;4.57;85.33
46642;BME280;32370;41.864;-88.124;2022-12-29T03:32:30;98227.04;;;4.61;85.41
46642;BME280;32370;41.864;-88.124;2022-12-29T03:35:03;98232.28;;;4.66;85.49
46642;BME280;32370;41.864;-88.124;2022-12-29T03:37:35;98233.61;;;4.63;85.51
46642;BME280;32370;41.864;-88.124;2022-12-29T03:40:08;98232.81;;;4.72;85.63
46642;BME280;32370;41.864;-88.124;2022-12-29T03:42:41;98236.31;;;5.05;85.45
46642;BME280;32370;41.864;-88.124;2022-12-29T03:45:11;98234.23;;;4.75;85.36
46642;BME280;32370;41.864;-88.124;2022-12-29T03:47:40;98238.57;;;4.60;86.04
46642;BME280;32370;41.864;-88.124;2022-12-29T03:50:13;98242.40;;;5.01;86.15
46642;BME280;32370;41.864;-88.124;2022-12-29T03:52:41;98234.79;;;4.77;86.75
46642;BME280;32370;41.864;-88.124;2022-12-29T03:55:11;98237.94;;;4.99;86.29
46642;BME280;32370;41.864;-88.124;2022-12-29T03:57:41;98235.54;;;5.01;86.46
46642;BME280;32370;41.864;-88.124;2022-12-29T04:00:10;98237.51;;;4.77;86.41
46642;BME280;32370;41.864;-88.124;2022-12-29T04:02:38;98229.34;;;4.59;87.21
46642;BME280;32370;41.864;-88.124;2022-12-29T04:05:07;98234.63;;;4.63;87.73
46642;BME280;32370;41.864;-88.124;2022-12-29T04:07:40;98229.50;;;4.90;87.15
46642;BME280;32370;41.864;-88.124;2022-12-29T04:10:09;98227.37;;;4.78;87.86
46642;BME280;32370;41.864;-88.124;2022-12-29T04:12:39;98233.60;;;4.77;87.84
46642;BME280;32370;41.864;-88.124;2022-12-29T04:15:08;98224.63;;;4.54;88.17
46642;BME280;32370;41.864;-88.124;2022-12-29T04:17:36;98234.27;;;4.80;87.63
46642;BME280;32370;41.864;-88.124;2022-12-29T04:20:05;98223.45;;;4.72;87.82
46642;BME280;32370;41.864;-88.124;2022-12-29T04:22:32;98225.87;;;4.55;88.16
46642;BME280;32370;41.864;-88.124;2022-12-29T04:25:00;98227.27;;;4.69;87.58
46642;BME280;32370;41.864;-88.124;2022-12-29T04:27:28;98223.15;;;4.65;88.29
46642;BME280;32370;41.864;-88.124;2022-12-29T04:29:57;98218.89;;;4.95;88.29
46642;BME280;32370;41.864;-88.124;2022-12-29T04:32:26;98230.84;;;5.00;88.19
46642;BME280;32370;41.864;-88.124;2022-12-29T04:34:53;98230.52;;;5.05;87.95
46642;BME280;32370;41.864;-88.124;2022-12-29T04:37:21;98220.12;;;4.79;88.97
46642;BME280;32370;41.864;-88.124;2022-12-29T04:39:49;98224.50;;;4.42;89.58
46642;BME280;32370;41.864;-88.124;2022-12-29T04:42:17;98222.03;;;4.55;89.18
46642;BME280;32370;41.864;-88.124;2022-12-29T04:44:45;98223.69;;;4.37;89.89
46642;BME280;32370;41.864;-88.124;2022-12-29T04:47:13;98226.26;;;4.81;89.46
46642;BME280;32370;41.864;-88.124;2022-12-29T04:49:41;98221.90;;;4.57;89.68
46642;BME280;32370;41.864;-88.124;2022-12-29T04:52:09;98225.52;;;4.60;90.78
46642;BME280;32370;41.864;-88.124;2022-12-29T04:54:36;98223.04;;;4.87;89.80
46642;BME280;32370;41.864;-88.124;2022-12-29T04:57:04;98227.63;;;4.57;89.75
46642;BME280;32370;41.864;-88.124;2022-12-29T04:59:32;98228.98;;;4.58;89.89
46642;BME280;32370;41.864;-88.124;2022-12-29T05:02:00;98227.36;;;4.52;90.08
46642;BME280;32370;41.864;-88.124;2022-12-29T05:04:28;98232.03;;;4.68;90.85
46642;BME280;32370;41.864;-88.124;2022-12-29T05:06:56;98230.24;;;4.15;90.96
46642;BME280;32370;41.864;-88.124;2022-12-29T05:09:24;98230.12;;;4.60;91.60
46642;BME280;32370;41.864;-88.124;2022-12-29T05:11:52;98231.67;;;4.80;91.15
46642;BME280;32370;41.864;-88.124;2022-12-29T05:14:19;98235.91;;;4.61;90.85
46642;BME280;32370;41.864;-88.124;2022-12-29T05:16:47;98229.69;;;4.56;91.17
46642;BME280;32370;41.864;-88.124;2022-12-29T05:19:15;98228.30;;;4.82;91.38
46642;BME280;32370;41.864;-88.124;2022-12-29T05:21:43;98229.38;;;4.46;91.78
46642;BME280;32370;41.864;-88.124;2022-12-29T05:24:11;98227.59;;;4.46;91.81
46642;BME280;32370;41.864;-88.124;2022-12-29T05:26:39;98224.04;;;4.50;91.79
46642;BME280;32370;41.864;-88.124;2022-12-29T05:29:07;98227.89;;;4.22;92.24
46642;BME280;32370;41.864;-88.124;2022-12-29T05:31:36;98223.46;;;4.56;92.78
46642;BME280;32370;41.864;-88.124;2022-12-29T05:34:04;98226.42;;;4.23;92.78
46642;BME280;32370;41.864;-88.124;2022-12-29T05:36:32;98225.46;;;4.12;92.94
46642;BME280;32370;41.864;-88.124;2022-12-29T05:39:00;98224.27;;;4.19;93.87
46642;BME280;32370;41.864;-88.124;2022-12-29T05:41:28;98222.25;;;4.53;93.78
46642;BME280;32370;41.864;-88.124;2022-12-29T05:43:56;98217.73;;;4.84;92.75
46642;BME280;32370;41.864;-88.124;2022-12-29T05:46:23;98222.86;;;4.49;92.82
46642;BME280;32370;41.864;-88.124;2022-12-29T05:48:51;98217.50;;;4.49;93.03
46642;BME280;32370;41.864;-88.124;2022-12-29T05:51:19;98211.33;;;4.50;93.00
46642;BME280;32370;41.864;-88.124;2022-12-29T05:53:47;98214.34;;;4.05;93.48
46642;BME280;32370;41.864;-88.124;2022-12-29T05:56:15;98223.25;;;4.29;93.81
46642;BME280;32370;41.864;-88.124;2022-12-29T05:58:43;98215.45;;;4.25;94.03
46642;BME280;32370;41.864;-88.124;2022-12-29T06:01:11;98221.49;;;4.53;94.35
46642;BME280;32370;41.864;-88.124;2022-12-29T06:03:38;98217.69;;;4.55;93.99
46642;BME280;32370;41.864;-88.124;2022-12-29T06:06:06;98214.97;;;4.61;93.73
46642;BME280;32370;41.864;-88.124;2022-12-29T06:08:34;98209.89;;;4.10;94.80
46642;BME280;32370;41.864;-88.124;2022-12-29T06:11:02;98215.06;;;4.72;93.91
46642;BME280;32370;41.864;-88.124;2022-12-29T06:13:35;98211.61;;;4.20;94.42
46642;BME280;32370;41.864;-88.124;2022-12-29T06:16:04;98204.81;;;4.10;94.69
46642;BME280;32370;41.864;-88.124;2022-12-29T06:18:33;98209.46;;;4.56;94.78
46642;BME280;32370;41.864;-88.124;2022-12-29T06:21:01;98206.25;;;4.31;94.33
46642;BME280;32370;41.864;-88.124;2022-12-29T06:23:29;98203.98;;;4.31;94.20
46642;BME280;32370;41.864;-88.124;2022-12-29T06:25:58;98209.29;;;4.10;94.94
46642;BME280;32370;41.864;-88.124;2022-12-29T06:28:26;98205.49;;;4.14;94.06
46642;BME280;32370;41.864;-88.124;2022-12-29T06:30:54;98201.19;;;4.15;94.89
46642;BME280;32370;41.864;-88.124;2022-12-29T06:33:23;98205.04;;;3.99;95.55
46642;BME280;32370;41.864;-88.124;2022-12-29T06:35:50;98205.71;;;4.34;95.41
46642;BME280;32370;41.864;-88.124;2022-12-29T06:38:18;98205.70;;;3.98;96.15
46642;BME280;32370;41.864;-88.124;2022-12-29T06:40:47;98199.26;;;4.03;95.69
46642;BME280;32370;41.864;-88.124;2022-12-29T06:43:15;98207.27;;;4.34;96.15
46642;BME280;32370;41.864;-88.124;2022-12-29T06:45:43;98200.07;;;3.98;96.23
46642;BME280;32370;41.864;-88.124;2022-12-29T06:48:10;98204.79;;;4.21;95.80
46642;BME280;32370;41.864;-88.124;2022-12-29T06:50:38;98207.70;;;4.07;95.86
46642;BME280;32370;41.864;-88.124;2022-12-29T06:53:06;98209.17;;;4.11;96.16
46642;BME280;32370;41.864;-88.124;2022-12-29T06:55:34;98202.68;;;3.98;96.58
46642;BME280;32370;41.864;-88.124;2022-12-29T06:58:02;98204.25;;;3.77;97.01
46642;BME280;32370;41.864;-88.124;2022-12-29T07:00:30;98206.32;;;4.02;97.12
46642;BME280;32370;41.864;-88.124;2022-12-29T07:02:58;98203.16;;;3.62;98.32
46642;BME280;32370;41.864;-88.124;2022-12-29T07:05:27;98208.15;;;3.44;97.41
46642;BME280;32370;41.864;-88.124;2022-12-29T07:07:54;98207.42;;;3.84;97.79
46642;BME280;32370;41.864;-88.124;2022-12-29T07:10:23;98207.38;;;3.67;97.47
46642;BME280;32370;41.864;-88.124;2022-12-29T07:12:51;98201.30;;;3.80;97.38
46642;BME280;32370;41.864;-88.124;2022-12-29T07:15:19;98207.18;;;4.12;96.78
46642;BME280;32370;41.864;-88.124;2022-12-29T07:17:47;98204.11;;;3.47;97.77
46642;BME280;32370;41.864;-88.124;2022-12-29T07:20:15;98205.69;;;3.84;96.59
46642;BME280;32370;41.864;-88.124;2022-12-29T07:22:49;98207.06;;;3.77;97.38
46642;BME280;32370;41.864;-88.124;2022-12-29T07:25:16;98208.69;;;4.13;97.15
46642;BME280;32370;41.864;-88.124;2022-12-29T07:27:44;98214.63;;;3.66;98.10
46642;BME280;32370;41.864;-88.124;2022-12-29T07:30:13;98211.33;;;3.71;98.13
46642;BME280;32370;41.864;-88.124;2022-12-29T07:32:41;98206.75;;;3.97;97.64
46642;BME280;32370;41.864;-88.124;2022-12-29T07:35:10;98208.90;;;3.71;98.35
46642;BME280;32370;41.864;-88.124;2022-12-29T07:37:39;98218.91;;;3.49;99.11
46642;BME280;32370;41.864;-88.124;2022-12-29T07:40:09;98214.46;;;3.55;98.93
46642;BME280;32370;41.864;-88.124;2022-12-29T07:42:37;98217.94;;;3.64;98.61
46642;BME280;32370;41.864;-88.124;2022-12-29T07:45:06;98214.60;;;3.68;99.28
46642;BME280;32370;41.864;-88.124;2022-12-29T07:47:33;98209.83;;;3.80;98.74
46642;BME280;32370;41.864;-88.124;2022-12-29T07:50:01;98220.06;;;3.90;99.98
46642;BME280;32370;41.864;-88.124;2022-12-29T07:52:29;98220.31;;;4.02;99.69
46642;BME280;32370;41.864;-88.124;2022-12-29T07:54:58;98226.61;;;4.05;99.60
46642;BME280;32370;41.864;-88.124;2022-12-29T07:57:26;98218.29;;;3.93;99.41
46642;BME280;32370;41.864;-88.124;2022-12-29T07:59:54;98218.50;;;4.25;99.33
46642;BME280;32370;41.864;-88.124;2022-12-29T08:02:22;98227.15;;;4.15;99.82
46642;BME280;32370;41.864;-88.124;2022-12-29T08:04:49;98221.17;;;4.02;99.58
46642;BME280;32370;41.864;-88.124;2022-12-29T08:07:17;98226.77;;;4.04;99.52
46642;BME280;32370;41.864;-88.124;2022-12-29T08:09:45;98228.24;;;4.39;99.29
46642;BME280;32370;41.864;-88.124;2022-12-29T08:12:13;98226.59;;;4.06;99.97
46642;BME280;32370;41.864;-88.124;2022-12-29T08:14:41;98221.88;;;4.35;99.20
46642;BME280;32370;41.864;-88.124;2022-12-29T08:17:10;98223.94;;;4.22;98.64
46642;BME280;32370;41.864;-88.124;2022-12-29T08:19:38;98226.87;;;4.43;98.72
46642;BME280;32370;41.864;-88.124;2022-12-29T08:22:05;98222.07;;;4.43;98.19
46642;BME280;32370;41.864;-88.124;2022-12-29T08:24:40;98225.59;;;4.42;98.79
46642;BME280;32370;41.864;-88.124;2022-12-29T08:27:08;98217.35;;;4.79;98.76
46642;BME280;32370;41.864;-88.124;2022-12-29T08:29:36;98221.09;;;4.62;98.27
46642;BME280;32370;41.864;-88.124;2022-12-29T08:32:04;98222.77;;;4.61;99.09
46642;BME280;32370;41.864;-88.124;2022-12-29T08:34:37;98229.69;;;4.75;98.95
46642;BME280;32370;41.864;-88.124;2022-12-29T08:37:05;98235.12;;;5.18;98.43
46642;BME280;32370;41.864;-88.124;2022-12-29T08:39:38;98214.73;;;4.55;98.86
46642;BME280;32370;41.864;-88.124;2022-12-29T08:42:06;98215.81;;;4.64;98.28
46642;BME280;32370;41.864;-88.124;2022-12-29T08:44:34;98223.34;;;4.63;98.39
46642;BME280;32370;41.864;-88.124;2022-12-29T08:47:02;98222.29;;;4.73;98.70
46642;BME280;32370;41.864;-88.124;2022-12-29T08:49:35;98228.31;;;5.30;98.72
46642;BME280;32370;41.864;-88.124;2022-12-29T08:52:04;98225.12;;;5.11;98.38
46642;BME280;32370;41.864;-88.124;2022-12-29T08:54:32;98229.68;;;4.92;98.20
46642;BME280;32370;41.864;-88.124;2022-12-29T08:57:00;98230.70;;;4.93;98.12
46642;BME280;32370;41.864;-88.124;2022-12-29T08:59:33;98230.12;;;5.01;98.59
46642;BME280;32370;41.864;-88.124;2022-12-29T09:02:01;98224.43;;;4.89;98.67
46642;BME280;32370;41.864;-88.124;2022-12-29T09:04:29;98223.14;;;5.10;98.79
46642;BME280;32370;41.864;-88.124;2022-12-29T09:06:56;98233.52;;;5.24;97.74
46642;BME280;32370;41.864;-88.124;2022-12-29T09:09:24;98226.06;;;5.19;98.48
46642;BME280;32370;41.864;-88.124;2022-12-29T09:11:52;98221.67;;;5.05;97.81
46642;BME280;32370;41.864;-88.124;2022-12-29T09:14:20;98219.61;;;4.75;97.82
46642;BME280;32370;41.864;-88.124;2022-12-29T09:16:50;98214.82;;;5.15;97.96
46642;BME280;32370;41.864;-88.124;2022-12-29T09:19:18;98219.51;;;5.31;97.89
46642;BME280;32370;41.864;-88.124;2022-12-29T09:21:46;98210.08;;;5.26;97.74
46642;BME280;32370;41.864;-88.124;2022-12-29T09:24:14;98213.11;;;5.14;97.58
46642;BME280;32370;41.864;-88.124;2022-12-29T09:26:42;98217.53;;;4.91;97.94
46642;BME280;32370;41.864;-88.124;2022-12-29T09:29:10;98214.73;;;4.80;98.26
46642;BME280;32370;41.864;-88.124;2022-12-29T09:31:38;98221.95;;;5.16;97.08
46642;BME280;32370;41.864;-88.124;2022-12-29T09:34:06;98223.93;;;5.06;97.66
46642;BME280;32370;41.864;-88.124;2022-12-29T09:36:33;98221.88;;;5.10;97.77
46642;BME280;32370;41.864;-88.124;2022-12-29T09:39:02;98217.75;;;4.98;98.10
46642;BME280;32370;41.864;-88.124;2022-12-29T09:41:36;98225.17;;;4.28;98.46
46642;BME280;32370;41.864;-88.124;2022-12-29T09:44:11;98211.89;;;5.05;99.04
46642;BME280;32370;41.864;-88.124;2022-12-29T09:46:46;98213.90;;;4.78;98.81
46642;BME280;32370;41.864;-88.124;2022-12-29T09:49:25;98210.17;;;4.65;99.42
46642;BME280;32370;41.864;-88.124;2022-12-29T09:51:59;98219.10;;;4.69;100.00
46642;BME280;32370;41.864;-88.124;2022-12-29T09:54:39;98217.92;;;4.59;100.00
46642;BME280;32370;41.864;-88.124;2022-12-29T09:57:15;98210.22;;;5.05;99.47
46642;BME280;32370;41.864;-88.124;2022-12-29T09:59:46;98214.62;;;4.73;99.69
46642;BME280;32370;41.864;-88.124;2022-12-29T10:02:29;98219.71;;;4.68;100.00
46642;BME280;32370;41.864;-88.124;2022-12-29T10:04:59;98210.57;;;4.68;99.81
46642;BME280;32370;41.864;-88.124;2022-12-29T10:07:37;98213.86;;;4.46;99.53
46642;BME280;32370;41.864;-88.124;2022-12-29T10:10:19;98213.75;;;5.04;99.71
46642;BME280;32370;41.864;-88.124;2022-12-29T10:13:01;98209.02;;;4.70;99.55
46642;BME280;32370;41.864;-88.124;2022-12-29T10:15:42;98212.04;;;4.62;99.91
46642;BME280;32370;41.864;-88.124;2022-12-29T10:18:25;98206.48;;;4.84;100.00
46642;BME280;32370;41.864;-88.124;2022-12-29T10:21:03;98215.39;;;4.98;100.00
46642;BME280;32370;41.864;-88.124;2022-12-29T10:23:38;98214.93;;;4.38;100.00
46642;BME280;32370;41.864;-88.124;2022-12-29T10:26:13;98213.18;;;4.49;100.00
46642;BME280;32370;41.864;-88.124;2022-12-29T10:28:44;98216.75;;;5.29;100.00
46642;BME280;32370;41.864;-88.124;2022-12-29T10:31:18;98217.30;;;5.05;100.00
46642;BME280;32370;41.864;-88.124;2022-12-29T10:33:51;98220.17;;;5.14;100.00
46642;BME280;32370;41.864;-88.124;2022-12-29T10:36:30;98226.84;;;4.99;100.00
46642;BME280;32370;41.864;-88.124;2022-12-29T10:39:10;98222.18;;;5.03;100.00
46642;BME280;32370;41.864;-88.124;2022-12-29T10:41:48;98221.56;;;4.80;100.00
46642;BME280;32370;41.864;-88.124;2022-12-29T10:44:17;98229.94;;;4.93;100.00
46642;BME280;32370;41.864;-88.124;2022-12-29T10:46:54;98223.74;;;4.99;100.00
46642;BME280;32370;41.864;-88.124;2022-12-29T10:49:25;98231.83;;;4.81;100.00
46642;BME280;32370;41.864;-88.124;2022-12-29T10:51:57;98229.67;;;5.02;100.00
46642;BME280;32370;41.864;-88.124;2022-12-29T10:54:31;98221.86;;;4.77;100.00
46642;BME280;32370;41.864;-88.124;2022-12-29T10:57:03;98234.07;;;5.21;100.00
46642;BME280;32370;41.864;-88.124;2022-12-29T10:59:34;98235.92;;;5.28;100.00
46642;BME280;32370;41.864;-88.124;2022-12-29T11:02:18;98234.37;;;5.35;100.00
46642;BME280;32370;41.864;-88.124;2022-12-29T11:04:57;98233.38;;;5.24;100.00
46642;BME280;32370;41.864;-88.124;2022-12-29T11:07:27;98229.20;;;5.41;100.00
46642;BME280;32370;41.864;-88.124;2022-12-29T11:09:59;98232.26;;;5.47;100.00
46642;BME280;32370;41.864;-88.124;2022-12-29T11:12:55;98238.27;;;5.54;100.00
46642;BME280;32370;41.864;-88.124;2022-12-29T11:15:23;98239.62;;;5.57;100.00
46642;BME280;32370;41.864;-88.124;2022-12-29T11:17:56;98235.88;;;5.70;100.00
46642;BME280;32370;41.864;-88.124;2022-12-29T11:20:30;98237.93;;;5.78;100.00
46642;BME280;32370;41.864;-88.124;2022-12-29T11:22:59;98236.42;;;5.37;100.00
46642;BME280;32370;41.864;-88.124;2022-12-29T11:25:27;98232.02;;;5.34;100.00
46642;BME280;32370;41.864;-88.124;2022-12-29T11:27:59;98240.12;;;5.81;100.00
46642;BME280;32370;41.864;-88.124;2022-12-29T11:30:29;98243.03;;;5.82;100.00
46642;BME280;32370;41.864;-88.124;2022-12-29T11:32:58;98248.48;;;5.61;100.00
46642;BME280;32370;41.864;-88.124;2022-12-29T11:35:33;98245.29;;;5.75;100.00
46642;BME280;32370;41.864;-88.124;2022-12-29T11:38:02;98247.28;;;5.31;100.00
46642;BME280;32370;41.864;-88.124;2022-12-29T11:40:39;98259.27;;;5.79;100.00
46642;BME280;32370;41.864;-88.124;2022-12-29T11:43:12;98249.51;;;5.27;100.00
46642;BME280;32370;41.864;-88.124;2022-12-29T11:45:47;98258.30;;;5.86;100.00
46642;BME280;32370;41.864;-88.124;2022-12-29T11:48:18;98261.42;;;5.80;100.00
46642;BME280;32370;41.864;-88.124;2022-12-29T11:50:51;98260.60;;;5.31;100.00
46642;BME280;32370;41.864;-88.124;2022-12-29T11:53:23;98269.14;;;5.26;100.00
46642;BME280;32370;41.864;-88.124;2022-12-29T11:55:53;98267.64;;;5.01;100.00
46642;BME280;32370;41.864;-88.124;2022-12-29T11:58:29;98268.54;;;5.29;100.00
46642;BME280;32370;41.864;-88.124;2022-12-29T12:00:58;98276.82;;;5.57;100.00
46642;BME280;32370;41.864;-88.124;2022-12-29T12:03:31;98281.16;;;5.37;100.00
46642;BME280;32370;41.864;-88.124;2022-12-29T12:06:02;98282.60;;;5.44;100.00
46642;BME280;32370;41.864;-88.124;2022-12-29T12:08:36;98285.50;;;5.58;100.00
46642;BME280;32370;41.864;-88.124;2022-12-29T12:11:10;98288.63;;;5.57;100.00
46642;BME280;32370;41.864;-88.124;2022-12-29T12:13:43;98292.88;;;5.81;100.00
46642;BME280;32370;41.864;-88.124;2022-12-29T12:16:16;98287.76;;;5.57;100.00
46642;BME280;32370;41.864;-88.124;2022-12-29T12:18:49;98294.56;;;5.44;100.00
46642;BME280;32370;41.864;-88.124;2022-12-29T12:21:24;98288.54;;;6.04;100.00
46642;BME280;32370;41.864;-88.124;2022-12-29T12:24:04;98293.87;;;5.51;100.00
46642;BME280;32370;41.864;-88.124;2022-12-29T12:26:42;98289.42;;;5.82;100.00
46642;BME280;32370;41.864;-88.124;2022-12-29T12:29:16;98292.55;;;5.37;100.00
46642;BME280;32370;41.864;-88.124;2022-12-29T12:31:51;98301.83;;;5.20;100.00
46642;BME280;32370;41.864;-88.124;2022-12-29T12:34:26;98295.71;;;5.31;100.00
46642;BME280;32370;41.864;-88.124;2022-12-29T12:37:06;98297.09;;;5.17;100.00
46642;BME280;32370;41.864;-88.124;2022-12-29T12:39:47;98304.92;;;5.95;100.00
46642;BME280;32370;41.864;-88.124;2022-12-29T12:42:29;98302.50;;;5.91;100.00
46642;BME280;32370;41.864;-88.124;2022-12-29T12:45:29;98312.17;;;5.63;100.00
46642;BME280;32370;41.864;-88.124;2022-12-29T12:48:10;98316.61;;;5.90;100.00
46642;BME280;32370;41.864;-88.124;2022-12-29T12:50:52;98310.77;;;5.89;100.00
46642;BME280;32370;41.864;-88.124;2022-12-29T12:53:34;98317.44;;;5.66;100.00
46642;BME280;32370;41.864;-88.124;2022-12-29T12:56:20;98333.00;;;5.81;100.00
46642;BME280;32370;41.864;-88.124;2022-12-29T12:58:55;98323.81;;;5.90;100.00
46642;BME280;32370;41.864;-88.124;2022-12-29T13:01:35;98311.17;;;5.95;100.00
46642;BME280;32370;41.864;-88.124;2022-12-29T13:04:26;98311.65;;;6.06;100.00
46642;BME280;32370;41.864;-88.124;2022-12-29T13:07:03;98318.82;;;6.16;100.00
46642;BME280;32370;41.864;-88.124;2022-12-29T13:09:45;98314.20;;;6.83;100.00